Current Weather

Otis Angb Airport

Otis Angb Airport, Massachusetts (KFMH)

Report from: Sunday, May 22, 2022 2:55 AM EDT
Current time: Sunday, May 22, 2022 3:35 AM EDT

Nearby weather
Weather history
Weather forecast

Temperature16.0°C (60.8°F)
Dew point15.0°C (59.0°F)
Winds 4 kts (2.1 m/s, 4.6 mph) Southwest (230°)
Visibility10 mi. (16.1 km)
Clouds Sky clear
Altimeter30.02 in.Hg (1017 mB)
Relative humidity94 %
Density altitude240 ft. (73 m)
Flight conditions Visual Meteorological Conditions
Raw dataKFMH 220655Z 23004KT 10SM CLR 16/15 A3002
An error has occurred. This application may no longer respond until reloaded. Reload 🗙